Time;durP1;ratioP1;P1;durP2;ratioP2;P2;SDS_P1;SDS_P2;PMS_P1;PMS_P2;Temp;Humidity;BMP_temperature;BMP_pressure;BME280_temperature;BME280_humidity;BME280_pressure;Samples;Min_cycle;Max_cycle;Signal;HPM_P1;HPM_P2
2023/07/04 00:01:15;;;;;;;11.00;5.47;;;;;;;19.98;41.72;99920.41;5124789;27;20226;-75
2023/07/04 00:03:46;;;;;;;10.93;5.53;;;;;;;19.92;41.87;99918.09;5128670;27;20199;-75
2023/07/04 00:06:17;;;;;;;12.00;5.78;;;;;;;19.85;41.94;99919.38;5131460;27;20261;-76
2023/07/04 00:08:46;;;;;;;10.88;4.80;;;;;;;19.81;42.28;99916.06;5129938;27;20200;-76
2023/07/04 00:11:14;;;;;;;11.20;6.00;;;;;;;19.76;42.09;99920.66;5124529;27;20223;-76
2023/07/04 00:13:43;;;;;;;10.82;5.28;;;;;;;19.78;42.17;99930.13;5127254;27;20195;-76
2023/07/04 00:16:14;;;;;;;10.95;5.70;;;;;;;19.78;42.33;99934.53;5126544;27;20227;-75
2023/07/04 00:18:44;;;;;;;9.75;5.38;;;;;;;19.80;42.55;99932.66;5126364;27;20203;-75
2023/07/04 00:21:14;;;;;;;11.50;6.00;;;;;;;19.81;42.51;99928.25;5133639;27;20205;-76
2023/07/04 00:23:45;;;;;;;12.48;5.65;;;;;;;19.76;42.65;99929.34;5134556;27;20199;-75
2023/07/04 00:26:17;;;;;;;10.85;6.07;;;;;;;19.70;42.88;99926.19;5136548;27;20254;-74
2023/07/04 00:28:47;;;;;;;14.43;5.78;;;;;;;19.72;43.07;99934.81;5134115;27;20206;-76
2023/07/04 00:31:17;;;;;;;11.30;5.60;;;;;;;19.70;42.95;99937.53;5133078;27;20206;-74
2023/07/04 00:33:46;;;;;;;17.45;6.82;;;;;;;19.71;43.23;99944.44;5133865;27;20550;-75
2023/07/04 00:36:17;;;;;;;12.90;6.35;;;;;;;19.72;43.27;99951.34;5129005;27;20566;-76
2023/07/04 00:38:48;;;;;;;10.45;6.03;;;;;;;19.72;43.80;99946.13;5132796;27;20226;-74
2023/07/04 00:41:21;;;;;;;8.75;5.88;;;;;;;19.73;43.31;99946.97;5131800;27;20247;-75
2023/07/04 00:43:58;;;;;;;11.98;5.88;;;;;;;19.74;43.67;99948.66;5129698;27;20991;-74
2023/07/04 00:46:39;;;;;;;12.07;6.45;;;;;;;19.76;43.60;99955.50;5128012;27;20210;-76
2023/07/04 00:49:22;;;;;;;12.10;6.18;;;;;;;19.73;43.63;99947.81;5130916;27;20199;-75
2023/07/04 00:52:04;;;;;;;13.65;6.03;;;;;;;19.71;43.69;99940.97;5129211;27;20195;-75
2023/07/04 00:54:36;;;;;;;13.68;5.90;;;;;;;19.70;43.80;99942.75;5127972;27;20210;-74
2023/07/04 00:57:06;;;;;;;10.27;6.20;;;;;;;19.69;43.77;99943.66;5129539;27;20218;-75
2023/07/04 00:59:43;;;;;;;12.70;6.45;;;;;;;19.69;43.67;99941.03;5133337;27;20255;-75
2023/07/04 01:02:13;;;;;;;16.63;6.00;;;;;;;19.65;43.73;99947.34;5129219;27;20228;-74
2023/07/04 01:04:41;;;;;;;10.63;5.70;;;;;;;19.66;43.74;99945.56;5129368;27;20714;-75
2023/07/04 01:07:20;;;;;;;15.23;6.10;;;;;;;19.63;43.76;99943.97;5130593;27;20254;-77
2023/07/04 01:09:53;;;;;;;12.35;6.35;;;;;;;19.64;43.77;99937.81;5121847;27;20191;-74
2023/07/04 01:12:21;;;;;;;14.18;5.82;;;;;;;19.61;43.91;99943.16;5127425;27;20206;-74
2023/07/04 01:14:51;;;;;;;11.00;4.72;;;;;;;19.64;43.92;99943.06;5124774;27;21621;-75
2023/07/04 01:17:19;;;;;;;14.23;6.22;;;;;;;19.63;44.05;99946.59;5124673;27;20253;-75
2023/07/04 01:19:48;;;;;;;10.07;5.65;;;;;;;19.62;44.07;99939.66;5124096;27;20195;-73
2023/07/04 01:22:36;;;;;;;9.88;5.53;;;;;;;19.58;43.90;99932.03;5130368;27;20200;-74
2023/07/04 01:25:13;;;;;;;13.05;5.93;;;;;;;19.58;44.02;99948.53;5128645;27;20226;-75
2023/07/04 01:27:45;;;;;;;12.52;5.63;;;;;;;19.55;43.93;99943.47;5116076;27;20203;-74
2023/07/04 01:30:13;;;;;;;9.02;5.35;;;;;;;19.54;43.98;99944.41;5132273;27;20198;-76
2023/07/04 01:32:42;;;;;;;11.40;6.15;;;;;;;19.52;43.96;99951.50;5132004;27;20211;-76
2023/07/04 01:35:13;;;;;;;13.00;5.90;;;;;;;19.53;43.87;99950.56;5132236;27;20688;-74
2023/07/04 01:37:42;;;;;;;14.52;5.90;;;;;;;19.50;43.84;99945.47;5131912;27;20674;-75
2023/07/04 01:40:12;;;;;;;10.82;5.50;;;;;;;19.45;44.00;99948.34;5130457;27;20206;-76
2023/07/04 01:42:40;;;;;;;12.63;5.78;;;;;;;19.43;44.01;99955.38;5130002;27;20203;-75
2023/07/04 01:45:11;;;;;;;13.02;6.75;;;;;;;19.41;44.29;99953.78;5126524;27;20382;-73
2023/07/04 01:47:39;;;;;;;13.00;6.55;;;;;;;19.37;43.78;99952.22;5130844;27;20554;-74
2023/07/04 01:50:10;;;;;;;12.88;6.22;;;;;;;19.38;44.33;99953.94;5123715;27;20337;-74
2023/07/04 01:52:38;;;;;;;11.57;6.60;;;;;;;19.38;44.44;99964.38;5131517;27;20626;-75
2023/07/04 01:55:08;;;;;;;13.60;6.28;;;;;;;19.36;44.50;99963.59;5125602;27;20563;-74
2023/07/04 01:57:36;;;;;;;8.40;5.63;;;;;;;19.35;44.54;99961.91;5125564;27;20549;-75
2023/07/04 02:00:08;;;;;;;12.00;6.10;;;;;;;19.33;44.62;99966.38;5125654;27;20199;-76
2023/07/04 02:02:38;;;;;;;8.68;6.03;;;;;;;19.29;44.78;99963.94;5126703;27;20202;-76
2023/07/04 02:05:07;;;;;;;15.23;7.13;;;;;;;19.26;44.84;99958.84;5130442;27;20199;-74
2023/07/04 02:07:35;;;;;;;12.57;6.72;;;;;;;19.27;44.96;99965.75;5127169;27;20250;-74
2023/07/04 02:10:04;;;;;;;13.02;6.75;;;;;;;19.24;44.66;99950.22;5134270;27;20200;-76
2023/07/04 02:12:32;;;;;;;13.82;6.25;;;;;;;19.19;44.62;99952.22;5132474;27;20228;-76
2023/07/04 02:15:00;;;;;;;11.18;6.07;;;;;;;19.14;44.58;99955.97;5128183;27;20215;-76
2023/07/04 02:17:29;;;;;;;11.50;6.28;;;;;;;19.12;44.82;99963.88;5129302;27;20218;-74
2023/07/04 02:19:58;;;;;;;10.98;5.78;;;;;;;19.10;44.77;99963.09;5129000;27;20196;-74
2023/07/04 02:22:26;;;;;;;14.55;6.10;;;;;;;19.10;44.53;99963.09;5148371;27;20198;-76
2023/07/04 02:24:54;;;;;;;10.60;5.53;;;;;;;19.05;44.57;99955.50;5142186;27;20202;-74
2023/07/04 02:27:22;;;;;;;11.40;5.45;;;;;;;19.05;44.71;99954.66;5136480;27;20242;-74
2023/07/04 02:29:50;;;;;;;9.40;5.80;;;;;;;19.09;44.76;99958.81;5135337;27;20228;-75
2023/07/04 02:32:18;;;;;;;14.75;5.88;;;;;;;19.07;44.50;99958.03;5137521;27;20202;-74
2023/07/04 02:34:46;;;;;;;10.02;5.47;;;;;;;19.06;44.60;99951.13;5131688;27;20199;-75
2023/07/04 02:37:16;;;;;;;10.00;6.00;;;;;;;19.04;44.74;99960.81;5138758;27;20230;-76
2023/07/04 02:39:44;;;;;;;12.80;6.25;;;;;;;19.01;44.70;99955.72;5134557;27;20192;-74
2023/07/04 02:42:13;;;;;;;10.23;5.93;;;;;;;19.04;44.91;99964.25;5135695;27;20607;-75
2023/07/04 02:44:41;;;;;;;13.15;6.35;;;;;;;19.04;44.95;99963.41;5134835;27;20646;-74
2023/07/04 02:47:10;;;;;;;13.55;5.53;;;;;;;19.06;45.02;99966.78;5132585;27;20228;-75
2023/07/04 02:49:38;;;;;;;7.22;4.57;;;;;;;19.05;45.04;99959.88;5131927;27;20218;-76
2023/07/04 02:52:08;;;;;;;9.25;5.60;;;;;;;19.05;45.11;99955.50;5132108;27;20599;-75
2023/07/04 02:54:37;;;;;;;9.13;5.43;;;;;;;19.05;44.89;99955.50;5133191;27;20203;-74
2023/07/04 02:57:06;;;;;;;11.57;6.13;;;;;;;19.06;44.97;99956.34;5134668;27;20549;-76
2023/07/04 02:59:35;;;;;;;10.95;5.30;;;;;;;19.06;44.91;99961.56;5130201;27;20930;-76
2023/07/04 03:02:03;;;;;;;11.77;5.57;;;;;;;19.05;45.04;99960.72;5139667;27;20199;-78
2023/07/04 03:04:32;;;;;;;11.55;5.70;;;;;;;19.08;45.27;99964.13;5129293;27;20203;-77
2023/07/04 03:07:00;;;;;;;14.23;5.85;;;;;;;19.09;45.16;99963.19;5130047;27;20255;-78
2023/07/04 03:09:28;;;;;;;10.38;5.40;;;;;;;19.10;45.12;99957.03;5128810;27;20211;-77
2023/07/04 03:11:58;;;;;;;11.43;5.50;;;;;;;19.07;45.10;99968.47;5133894;27;20191;-77
2023/07/04 03:14:26;;;;;;;8.52;5.30;;;;;;;19.11;45.21;99961.34;5132010;27;20218;-75
2023/07/04 03:16:54;;;;;;;11.23;5.90;;;;;;;19.07;45.21;99965.84;5129712;27;20258;-75
2023/07/04 03:19:24;;;;;;;10.32;5.50;;;;;;;19.11;45.13;99966.56;5138061;27;20199;-75
2023/07/04 03:21:52;;;;;;;13.52;6.20;;;;;;;19.11;45.21;99969.16;5132744;27;20227;-76
2023/07/04 03:24:21;;;;;;;13.25;5.93;;;;;;;19.10;45.32;99984.00;5134848;27;20214;-77
2023/07/04 03:26:49;;;;;;;10.75;5.93;;;;;;;19.12;45.14;99979.56;5137861;27;20233;-76
2023/07/04 03:29:18;;;;;;;11.15;5.60;;;;;;;19.09;45.22;99977.09;5129843;27;20256;-75
2023/07/04 03:31:46;;;;;;;11.18;5.18;;;;;;;19.12;45.33;99974.34;5129539;27;20202;-75
2023/07/04 03:34:14;;;;;;;13.48;5.60;;;;;;;19.13;45.18;99980.41;5126129;27;20622;-75
2023/07/04 03:36:43;;;;;;;13.98;5.60;;;;;;;19.14;45.29;99980.31;5130760;27;20199;-75
2023/07/04 03:39:12;;;;;;;10.30;5.63;;;;;;;19.13;45.23;99973.41;5129556;27;20203;-76
2023/07/04 03:41:40;;;;;;;9.98;4.93;;;;;;;19.18;45.09;99981.00;5127117;27;20312;-75
2023/07/04 03:44:08;;;;;;;10.20;5.65;;;;;;;19.19;45.21;99975.75;5126560;27;20244;-74
2023/07/04 03:46:38;;;;;;;14.13;5.20;;;;;;;19.22;45.19;99969.50;5127190;27;20739;-75
2023/07/04 03:49:06;;;;;;;11.82;5.68;;;;;;;19.18;44.81;99960.97;5127783;27;20249;-72
2023/07/04 03:51:34;;;;;;;11.73;5.28;;;;;;;19.23;45.11;99958.16;5129117;27;20199;-75
2023/07/04 03:54:02;;;;;;;10.27;5.38;;;;;;;19.22;45.04;99967.75;5127274;27;20192;-76
2023/07/04 03:56:30;;;;;;;9.18;5.28;;;;;;;19.21;45.07;99963.44;5130040;27;20263;-76
2023/07/04 03:58:58;;;;;;;10.35;5.75;;;;;;;19.22;45.08;99966.88;5129677;27;20204;-76
2023/07/04 04:01:26;;;;;;;11.23;5.95;;;;;;;19.23;45.27;99960.75;5124944;27;20663;-77
2023/07/04 04:03:56;;;;;;;9.48;5.35;;;;;;;19.19;45.19;99957.44;5124606;27;20577;-76
2023/07/04 04:06:24;;;;;;;9.35;5.57;;;;;;;19.25;45.13;99967.59;5131345;27;20199;-78
2023/07/04 04:08:52;;;;;;;13.13;5.82;;;;;;;19.23;44.96;99955.53;5133040;27;20561;-76
2023/07/04 04:11:20;;;;;;;11.05;5.35;;;;;;;19.27;45.21;99963.16;5136259;27;20217;-76
2023/07/04 04:13:48;;;;;;;11.48;5.82;;;;;;;19.31;45.21;99972.53;5133051;27;20618;-76
2023/07/04 04:16:16;;;;;;;10.40;5.25;;;;;;;19.36;45.30;99968.84;5136242;27;20547;-75
2023/07/04 04:18:45;;;;;;;8.30;5.57;;;;;;;19.41;44.90;99964.25;5138285;27;20207;-77
2023/07/04 04:21:15;;;;;;;8.85;4.97;;;;;;;19.44;44.73;99967.56;5113424;27;20214;-77
2023/07/04 04:23:43;;;;;;;10.93;4.95;;;;;;;19.49;44.41;99967.31;5136675;27;20203;-76
2023/07/04 04:26:13;;;;;;;9.95;5.32;;;;;;;19.53;44.61;99981.91;5136260;27;20259;-76
2023/07/04 04:28:41;;;;;;;9.82;5.03;;;;;;;19.52;44.67;99980.25;5137802;27;20269;-77
2023/07/04 04:31:11;;;;;;;11.55;4.88;;;;;;;19.54;44.67;99981.84;5132190;27;20195;-76
2023/07/04 04:33:39;;;;;;;8.95;5.13;;;;;;;19.55;44.34;99982.66;5131551;27;20199;-77
2023/07/04 04:36:08;;;;;;;9.07;5.32;;;;;;;19.54;44.53;99983.59;5133473;27;20234;-75
2023/07/04 04:38:37;;;;;;;8.80;5.35;;;;;;;19.57;44.35;99983.47;5134424;27;20194;-75
2023/07/04 04:41:05;;;;;;;7.22;4.60;;;;;;;19.71;43.89;99985.41;5138207;27;20637;-76
2023/07/04 04:43:34;;;;;;;11.23;5.32;;;;;;;19.81;43.66;99988.41;5132373;27;20238;-74
2023/07/04 04:46:03;;;;;;;13.80;5.03;;;;;;;19.95;42.88;99996.38;5129553;27;20207;-75
2023/07/04 04:48:35;;;;;;;13.50;5.78;;;;;;;20.08;42.39;99988.78;5132566;27;20626;-75
2023/07/04 04:51:09;;;;;;;12.85;5.72;;;;;;;20.26;42.39;99999.13;5132639;27;20195;-76
2023/07/04 04:53:40;;;;;;;11.77;4.90;;;;;;;20.43;42.08;99995.59;5134009;27;20206;-76
2023/07/04 04:56:09;;;;;;;10.40;5.05;;;;;;;20.61;41.83;99996.44;5133416;27;20658;-75
2023/07/04 04:58:37;;;;;;;11.25;5.35;;;;;;;20.74;41.09;99994.84;5132879;27;20298;-74
2023/07/04 05:01:14;;;;;;;10.02;4.72;;;;;;;20.84;40.63;100004.81;5134238;27;20248;-76
2023/07/04 05:03:43;;;;;;;13.25;4.85;;;;;;;20.87;40.50;100005.50;5126919;27;20222;-75
2023/07/04 05:06:12;;;;;;;14.70;5.00;;;;;;;21.02;40.16;100003.78;5132238;27;21003;-75
2023/07/04 05:08:41;;;;;;;9.85;4.32;;;;;;;21.27;40.16;100003.28;5126576;27;21107;-73
2023/07/04 05:11:13;;;;;;;13.73;4.95;;;;;;;21.43;39.76;100008.53;5129703;27;20677;-74
2023/07/04 05:13:42;;;;;;;15.15;4.80;;;;;;;21.69;39.08;100010.50;5130419;27;20294;-74
2023/07/04 05:16:12;;;;;;;11.30;4.63;;;;;;;22.22;38.16;100016.16;5127923;27;20214;-74
2023/07/04 05:18:43;;;;;;;9.50;5.30;;;;;;;22.87;35.32;100010.41;5126671;27;20547;-75
2023/07/04 05:21:14;;;;;;;7.22;4.43;;;;;;;23.62;34.67;100023.97;5126603;27;20198;-74
2023/07/04 05:23:46;;;;;;;12.02;5.13;;;;;;;24.46;33.51;100020.97;5130696;27;20196;-73
2023/07/04 05:26:17;;;;;;;9.43;4.18;;;;;;;25.02;32.52;100012.63;5126889;27;20218;-73
2023/07/04 05:28:45;;;;;;;9.55;4.40;;;;;;;25.63;30.82;100015.19;5133328;27;20708;-74
2023/07/04 05:31:16;;;;;;;7.57;3.50;;;;;;;26.17;29.89;100017.28;5125644;27;20199;-73
2023/07/04 05:33:44;;;;;;;9.50;4.13;;;;;;;26.66;29.54;100013.50;5126501;27;20544;-73
2023/07/04 05:36:15;;;;;;;7.80;3.67;;;;;;;27.39;28.67;100012.03;5125480;27;20251;-72
2023/07/04 05:38:47;;;;;;;6.43;4.13;;;;;;;28.08;27.27;100014.22;5124172;27;20199;-74
2023/07/04 05:41:17;;;;;;;11.38;4.45;;;;;;;28.62;26.12;100013.94;5125820;27;20237;-74
2023/07/04 05:43:45;;;;;;;7.65;4.03;;;;;;;29.13;25.13;100017.47;5127919;27;21707;-74
2023/07/04 05:46:16;;;;;;;9.68;3.97;;;;;;;29.35;24.53;100021.69;5111638;27;20570;-73
2023/07/04 05:48:45;;;;;;;8.30;4.13;;;;;;;29.50;25.03;100020.28;5135202;27;20246;-73
2023/07/04 05:51:15;;;;;;;10.43;4.10;;;;;;;29.72;23.92;100019.19;5127468;27;20283;-78
2023/07/04 05:53:48;;;;;;;8.77;4.00;;;;;;;29.65;24.62;100028.69;5124278;27;20209;-73
2023/07/04 05:56:18;;;;;;;8.80;3.75;;;;;;;29.85;23.93;100019.69;5128542;27;20202;-70
2023/07/04 05:58:48;;;;;;;6.63;3.60;;;;;;;29.71;23.29;100017.47;5125193;27;20195;-71
2023/07/04 06:01:20;;;;;;;6.35;3.45;;;;;;;29.24;24.22;100024.47;5127485;27;20676;-72
2023/07/04 06:03:49;;;;;;;8.50;3.97;;;;;;;29.24;24.26;100024.47;5131393;27;20203;-72
2023/07/04 06:06:20;;;;;;;7.65;4.22;;;;;;;29.51;24.22;100026.41;5118915;27;20246;-71
2023/07/04 06:08:50;;;;;;;7.50;3.75;;;;;;;29.13;24.58;100022.78;5133374;27;20683;-71
2023/07/04 06:11:29;;;;;;;8.95;3.88;;;;;;;29.34;24.70;100020.81;5136094;27;20296;-73
2023/07/04 06:13:58;;;;;;;7.25;3.90;;;;;;;29.97;23.66;100028.38;5135330;27;20337;-72
2023/07/04 06:16:26;;;;;;;8.73;3.00;;;;;;;30.32;22.88;100014.44;5135929;27;20568;-70
2023/07/04 06:18:55;;;;;;;5.78;3.33;;;;;;;30.77;22.05;100024.34;5134711;27;20195;-72
2023/07/04 06:21:25;;;;;;;8.45;5.13;;;;;;;30.84;21.84;100027.25;5135355;27;20231;-73
2023/07/04 06:24:07;;;;;;;7.53;3.50;;;;;;;30.86;21.90;100029.75;5134289;27;20560;-71
2023/07/04 06:26:35;;;;;;;10.70;3.85;;;;;;;30.73;21.98;100030.91;5133741;27;20275;-72
2023/07/04 06:29:03;;;;;;;8.90;3.92;;;;;;;30.70;22.07;100027.72;5135055;27;20211;-71
2023/07/04 06:31:31;;;;;;;8.90;3.72;;;;;;;31.02;22.12;100028.13;5117253;27;20199;-72
2023/07/04 06:34:00;;;;;;;6.90;3.60;;;;;;;31.18;20.47;100024.78;5136093;27;20611;-71
2023/07/04 06:36:28;;;;;;;9.48;3.58;;;;;;;31.20;21.48;100028.16;5136008;27;20215;-70
2023/07/04 06:39:00;;;;;;;7.10;3.28;;;;;;;31.25;20.25;100025.03;5130401;27;20615;-71
2023/07/04 06:41:29;;;;;;;11.43;3.45;;;;;;;31.23;20.86;100030.50;5134315;27;20235;-71
2023/07/04 06:43:58;;;;;;;10.43;3.85;;;;;;;30.57;21.32;100036.03;5130760;27;20192;-69
2023/07/04 06:46:26;;;;;;;9.35;3.90;;;;;;;30.26;22.19;100028.31;5128675;27;20668;-72
2023/07/04 06:48:54;;;;;;;12.02;3.80;;;;;;;30.49;22.37;100028.81;5134156;27;20207;-71
2023/07/04 06:51:25;;;;;;;9.63;3.83;;;;;;;30.68;22.33;100030.53;5135949;27;20211;-73
2023/07/04 06:53:53;;;;;;;10.60;3.65;;;;;;;31.07;22.10;100026.81;5133589;27;20305;-72
2023/07/04 06:56:24;;;;;;;10.95;3.55;;;;;;;31.45;20.83;100026.59;5134474;27;20204;-74
2023/07/04 06:58:54;;;;;;;11.50;3.33;;;;;;;31.51;20.64;100025.94;5135500;27;20286;-73
2023/07/04 07:01:26;;;;;;;10.85;3.17;;;;;;;31.78;20.50;100037.53;5132058;27;20537;-74
2023/07/04 07:03:55;;;;;;;9.45;3.50;;;;;;;31.92;20.53;100039.63;5135423;27;20209;-74
2023/07/04 07:06:25;;;;;;;9.82;4.03;;;;;;;32.01;19.96;100035.22;5135210;27;20199;-73
2023/07/04 07:08:53;;;;;;;13.15;3.63;;;;;;;32.14;19.06;100027.63;5134828;27;20226;-73
2023/07/04 07:11:22;;;;;;;8.02;3.53;;;;;;;31.93;19.62;100030.66;5135058;27;20642;-73
2023/07/04 07:13:51;;;;;;;10.90;3.95;;;;;;;31.93;18.79;100036.00;5132896;27;20206;-74
2023/07/04 07:16:22;;;;;;;7.32;3.50;;;;;;;31.79;18.64;100030.34;5130912;27;20272;-73
2023/07/04 07:18:52;;;;;;;8.02;3.25;;;;;;;31.79;19.50;100025.88;5137664;27;20244;-73
2023/07/04 07:21:22;;;;;;;4.72;2.95;;;;;;;31.67;19.89;100022.63;5134520;27;20233;-73
2023/07/04 07:23:51;;;;;;;8.90;3.70;;;;;;;31.63;19.14;100033.72;5133990;27;20255;-72
2023/07/04 07:26:25;;;;;;;10.18;3.47;;;;;;;31.23;19.66;100027.84;5134722;27;20203;-70
2023/07/04 07:28:55;;;;;;;6.57;3.05;;;;;;;30.91;19.68;100027.50;5133656;27;20302;-71
2023/07/04 07:31:26;;;;;;;7.13;3.38;;;;;;;30.74;20.05;100029.94;5130475;27;20252;-71
2023/07/04 07:34:02;;;;;;;7.70;4.22;;;;;;;30.19;19.51;100029.84;5140914;27;20201;-72
2023/07/04 07:36:31;;;;;;;5.28;4.00;;;;;;;29.90;20.02;100026.41;5135683;27;20645;-71
2023/07/04 07:39:02;;;;;;;9.60;4.63;;;;;;;29.94;20.10;100025.16;5134349;27;20600;-71
2023/07/04 07:41:36;;;;;;;6.63;3.85;;;;;;;30.00;19.54;100019.25;5131709;27;20227;-72
2023/07/04 07:44:04;;;;;;;9.38;4.97;;;;;;;29.77;20.21;100022.22;5142007;27;20727;-73
2023/07/04 07:46:34;;;;;;;8.25;4.85;;;;;;;29.64;20.11;100016.38;5130873;27;20214;-71
2023/07/04 07:49:02;;;;;;;6.05;4.43;;;;;;;29.44;20.10;100025.31;5132804;27;20223;-71
2023/07/04 07:51:31;;;;;;;7.05;4.18;;;;;;;29.12;20.56;100015.75;5137010;27;20224;-71
2023/07/04 07:54:00;;;;;;;10.38;4.22;;;;;;;28.84;21.07;100017.38;5132326;27;20214;-72
2023/07/04 07:56:33;;;;;;;8.30;4.35;;;;;;;28.58;21.76;100017.84;5127535;27;20244;-72
2023/07/04 07:59:01;;;;;;;10.52;5.22;;;;;;;28.41;21.66;100016.66;5126577;27;20228;-73
2023/07/04 08:01:33;;;;;;;8.90;5.28;;;;;;;28.15;21.54;100020.69;5138775;27;20629;-72
2023/07/04 08:04:04;;;;;;;11.13;4.82;;;;;;;27.80;21.84;100021.88;5129190;27;20195;-73
2023/07/04 08:06:36;;;;;;;7.28;4.65;;;;;;;27.35;22.72;100021.19;5130114;27;20298;-73
2023/07/04 08:09:07;;;;;;;5.90;4.47;;;;;;;27.14;22.99;100015.84;5131791;27;20203;-72
2023/07/04 08:11:36;;;;;;;8.30;4.78;;;;;;;27.02;23.63;100014.16;5138371;27;20211;-75
2023/07/04 08:14:04;;;;;;;7.07;4.45;;;;;;;26.99;23.60;100002.03;5133776;27;20203;-76
2023/07/04 08:16:42;;;;;;;7.80;4.60;;;;;;;26.72;23.51;100011.19;5134476;27;20203;-73
2023/07/04 08:19:14;;;;;;;9.63;3.72;;;;;;;26.56;23.75;100016.03;5132450;27;20248;-74
2023/07/04 08:21:43;;;;;;;8.13;4.20;;;;;;;26.41;24.00;100019.84;5135956;27;20256;-72
2023/07/04 08:24:12;;;;;;;9.73;4.25;;;;;;;26.15;24.63;99998.09;5139419;27;20245;-72
2023/07/04 08:26:48;;;;;;;6.80;4.05;;;;;;;26.09;25.38;100003.84;5087123;27;20617;-71
2023/07/04 08:29:16;;;;;;;7.03;4.05;;;;;;;26.00;25.00;100006.22;5053928;28;20603;-73
2023/07/04 08:31:45;;;;;;;9.35;4.00;;;;;;;25.93;25.10;100020.84;5050348;28;20271;-71
2023/07/04 08:34:13;;;;;;;6.25;3.88;;;;;;;25.80;25.93;100020.09;5068848;28;20205;-71
2023/07/04 08:36:41;;;;;;;7.47;3.78;;;;;;;25.75;25.71;100009.03;5060330;28;20755;-72
2023/07/04 08:39:10;;;;;;;6.10;3.70;;;;;;;25.77;26.13;100021.16;5059975;28;20216;-71
2023/07/04 08:41:44;;;;;;;6.13;3.67;;;;;;;25.83;25.95;100008.47;5052822;28;20217;-72
2023/07/04 08:44:18;;;;;;;8.20;3.42;;;;;;;25.88;26.00;100004.50;5055463;28;20205;-70
2023/07/04 08:46:49;;;;;;;6.53;3.47;;;;;;;25.95;26.16;100013.63;5054391;28;20217;-71
2023/07/04 08:49:25;;;;;;;5.55;3.88;;;;;;;26.05;26.54;100008.50;5055533;28;20205;-71
2023/07/04 08:51:58;;;;;;;4.53;3.45;;;;;;;26.10;26.20;100001.06;5054984;28;20669;-71
2023/07/04 08:54:28;;;;;;;8.98;3.83;;;;;;;25.93;26.48;99999.75;5053777;28;20202;-71
2023/07/04 08:57:00;;;;;;;9.90;3.50;;;;;;;25.93;26.62;99997.09;5062981;28;20202;-71
2023/07/04 08:59:39;;;;;;;8.40;3.90;;;;;;;25.94;26.11;99998.78;5052536;28;20205;-72
2023/07/04 09:02:24;;;;;;;6.10;3.22;;;;;;;26.02;26.44;100003.47;5061167;28;20236;-68
2023/07/04 09:05:01;;;;;;;5.68;3.47;;;;;;;26.04;26.21;99995.44;5054371;28;20206;-67
2023/07/04 09:07:38;;;;;;;10.95;3.33;;;;;;;26.01;26.13;99991.22;5062002;28;20586;-67
2023/07/04 09:10:20;;;;;;;6.07;3.28;;;;;;;26.06;26.66;100001.44;5059534;28;20224;-72
2023/07/04 09:12:49;;;;;;;4.65;2.92;;;;;;;26.06;26.25;99998.78;5049327;28;20295;-69
2023/07/04 09:15:26;;;;;;;7.93;3.15;;;;;;;25.98;26.92;99994.94;5058158;28;20259;-66
2023/07/04 09:18:01;;;;;;;5.18;2.72;;;;;;;26.01;26.93;99999.16;5054960;28;20679;-70
2023/07/04 09:20:51;;;;;;;5.80;2.78;;;;;;;26.09;26.53;99988.00;5060572;28;20225;-68
2023/07/04 09:23:23;;;;;;;5.47;2.90;;;;;;;26.18;26.26;99984.63;5064722;28;20212;-62
2023/07/04 09:25:54;;;;;;;6.50;2.97;;;;;;;26.27;26.42;99986.56;5055069;28;20296;-65
2023/07/04 09:28:23;;;;;;;6.63;3.30;;;;;;;26.29;26.13;99986.44;5062789;28;20834;-61
2023/07/04 09:30:56;;;;;;;4.97;2.80;;;;;;;26.41;26.12;99978.41;5056529;28;20292;-61
2023/07/04 09:33:25;;;;;;;8.35;3.33;;;;;;;26.41;26.56;99988.13;5060683;28;20544;-61
2023/07/04 09:35:55;;;;;;;5.65;3.15;;;;;;;26.28;26.94;99972.38;5060033;28;20297;-65
2023/07/04 09:38:24;;;;;;;6.72;2.60;;;;;;;26.27;27.42;99976.00;5045891;28;20676;-62
2023/07/04 09:40:55;;;;;;;7.78;3.47;;;;;;;26.32;27.11;99981.75;5052010;28;20201;-60
2023/07/04 09:43:30;;;;;;;9.63;3.28;;;;;;;26.36;27.20;99982.34;5043251;28;20197;-64
2023/07/04 09:46:22;;;;;;;12.13;3.15;;;;;;;26.39;27.28;99985.59;5047229;28;20309;-61
2023/07/04 09:48:51;;;;;;;6.00;2.67;;;;;;;26.46;27.15;99986.81;5034368;28;20252;-59
2023/07/04 09:51:25;;;;;;;6.38;3.05;;;;;;;26.59;26.91;99985.88;5042511;28;20653;-62
2023/07/04 09:54:11;;;;;;;5.60;2.97;;;;;;;26.67;27.04;99978.19;5033998;28;20548;-60
2023/07/04 09:56:40;;;;;;;9.10;3.03;;;;;;;26.77;27.52;99988.84;5045971;28;20280;-61
2023/07/04 09:59:16;;;;;;;7.65;2.83;;;;;;;26.67;27.07;99976.38;5044638;28;20206;-62
2023/07/04 10:01:47;;;;;;;7.60;3.50;;;;;;;26.50;26.55;99993.56;5045775;28;20256;-61
2023/07/04 10:04:25;;;;;;;4.20;3.13;;;;;;;26.31;26.84;99990.66;5041441;28;20206;-61
2023/07/04 10:06:55;;;;;;;5.28;3.28;;;;;;;26.31;27.13;99980.06;5048229;28;20214;-60
2023/07/04 10:09:23;;;;;;;6.93;3.75;;;;;;;26.36;27.01;99985.84;5044590;28;20232;-60
2023/07/04 10:12:07;;;;;;;5.97;3.50;;;;;;;26.52;26.95;99989.97;5046505;28;20281;-61
2023/07/04 10:14:38;;;;;;;7.28;3.35;;;;;;;26.81;26.87;99980.56;5038925;28;20201;-61
2023/07/04 10:17:15;;;;;;;7.32;3.20;;;;;;;27.00;26.60;99985.19;5038878;28;20203;-61
2023/07/04 10:19:49;;;;;;;4.82;3.13;;;;;;;27.16;26.23;99987.47;5035700;28;20214;-62
2023/07/04 10:22:30;;;;;;;5.53;3.17;;;;;;;27.21;26.10;99972.03;5043939;28;20230;-64
2023/07/04 10:24:58;;;;;;;8.18;3.25;;;;;;;27.18;25.50;99982.91;5033111;28;20304;-61
2023/07/04 10:27:32;;;;;;;9.68;3.35;;;;;;;27.08;26.10;99982.75;5045232;28;20225;-61
2023/07/04 10:30:03;;;;;;;7.00;3.53;;;;;;;27.08;26.09;99977.47;5045260;28;20306;-60
2023/07/04 10:32:39;;;;;;;4.95;2.90;;;;;;;27.19;25.85;99969.53;5039670;28;20220;-59
2023/07/04 10:35:11;;;;;;;5.30;3.30;;;;;;;27.20;26.05;99965.91;5049349;28;20202;-61
2023/07/04 10:37:43;;;;;;;7.93;3.65;;;;;;;27.20;26.17;99959.78;5032928;28;20206;-60
2023/07/04 10:40:15;;;;;;;8.20;3.50;;;;;;;27.25;25.87;99968.19;5045902;28;20194;-60
2023/07/04 10:42:53;;;;;;;7.03;3.70;;;;;;;27.36;25.49;99965.50;5037375;28;20210;-60
2023/07/04 10:45:25;;;;;;;6.40;4.07;;;;;;;27.40;25.30;99972.22;5035984;28;20228;-62
2023/07/04 10:48:00;;;;;;;6.18;3.72;;;;;;;27.44;25.34;99971.00;5038051;28;20240;-63
2023/07/04 10:50:33;;;;;;;5.80;3.95;;;;;;;27.50;25.34;99966.13;5037867;28;20197;-61
2023/07/04 10:53:02;;;;;;;7.18;4.05;;;;;;;27.49;24.83;99975.06;5042354;28;20209;-61
2023/07/04 10:55:35;;;;;;;7.88;3.45;;;;;;;27.32;25.39;99965.88;5039242;28;20580;-60
2023/07/04 10:58:09;;;;;;;7.30;4.15;;;;;;;27.19;24.77;99974.81;5041383;28;22514;-61
2023/07/04 11:00:43;;;;;;;7.35;4.18;;;;;;;27.14;25.03;99981.47;5041714;28;22480;-60
2023/07/04 11:03:16;;;;;;;6.38;3.63;;;;;;;27.26;25.46;99958.44;5034080;28;20226;-60
2023/07/04 11:05:50;;;;;;;7.07;4.40;;;;;;;27.41;25.19;99958.00;5038113;28;20214;-61
2023/07/04 11:08:21;;;;;;;7.18;4.00;;;;;;;27.53;24.82;99955.31;5042532;28;20213;-61
2023/07/04 11:10:52;;;;;;;6.95;4.10;;;;;;;27.60;25.25;99951.19;5041831;28;20202;-63
2023/07/04 11:13:24;;;;;;;7.07;3.53;;;;;;;27.76;25.20;99956.88;5045034;28;20198;-61
2023/07/04 11:16:08;;;;;;;7.28;3.65;;;;;;;27.94;25.28;99944.72;5042755;28;20215;-61
2023/07/04 11:18:44;;;;;;;7.53;4.45;;;;;;;27.94;24.76;99944.72;5043488;28;20215;-62
2023/07/04 11:21:14;;;;;;;9.25;4.10;;;;;;;27.96;24.76;99946.41;5045074;28;20677;-60
2023/07/04 11:23:49;;;;;;;8.18;3.92;;;;;;;28.08;25.01;99943.53;5041047;28;20605;-62
2023/07/04 11:26:18;;;;;;;7.50;4.15;;;;;;;28.25;24.27;99941.25;5042657;28;20722;-61
2023/07/04 11:29:04;;;;;;;8.93;4.40;;;;;;;28.25;23.33;99946.56;5041714;28;20695;-59
2023/07/04 11:31:34;;;;;;;9.43;4.47;;;;;;;28.02;23.47;99956.47;5044682;28;20201;-61
2023/07/04 11:34:13;;;;;;;10.10;4.32;;;;;;;27.83;24.59;99952.75;5048016;28;20213;-59
2023/07/04 11:36:50;;;;;;;6.13;3.92;;;;;;;27.68;24.48;99949.56;5040447;28;20208;-61
2023/07/04 11:39:28;;;;;;;10.60;4.80;;;;;;;27.83;24.52;99952.75;5036299;28;20214;-59
2023/07/04 11:41:58;;;;;;;7.10;3.92;;;;;;;28.02;23.94;99959.09;5042018;28;20252;-60
2023/07/04 11:44:30;;;;;;;9.50;4.18;;;;;;;28.27;23.66;99944.59;5045618;28;20545;-61